createdAt,value
2017-10-24T00:00:20.885Z,21.80
2017-10-24T00:02:49.089Z,19.33
2017-10-24T00:05:16.523Z,25.37
2017-10-24T00:07:44.749Z,19.00
2017-10-24T00:10:12.233Z,21.43
2017-10-24T00:12:39.677Z,23.43
2017-10-24T00:15:07.130Z,27.50
2017-10-24T00:17:34.589Z,23.83
2017-10-24T00:20:02.059Z,22.13
2017-10-24T00:22:29.501Z,23.63
2017-10-24T00:24:56.974Z,26.87
2017-10-24T00:27:24.421Z,25.30
2017-10-24T00:32:42.809Z,21.03
2017-10-24T00:35:10.258Z,26.77
2017-10-24T00:37:37.741Z,22.60
2017-10-24T00:40:05.949Z,21.40
2017-10-24T00:42:33.386Z,19.53
2017-10-24T00:45:00.858Z,19.63
2017-10-24T00:47:28.323Z,20.97
2017-10-24T00:49:55.771Z,22.93
2017-10-24T00:52:23.230Z,22.33
2017-10-24T00:54:50.678Z,17.30
2017-10-24T00:57:18.142Z,18.40
2017-10-24T00:59:45.591Z,21.10
2017-10-24T01:02:13.045Z,21.90
2017-10-24T01:04:40.500Z,23.13
2017-10-24T01:07:08.738Z,21.00
2017-10-24T01:09:36.186Z,23.30
2017-10-24T01:12:03.638Z,20.10
2017-10-24T01:14:31.103Z,21.03
2017-10-24T01:16:58.549Z,19.57
2017-10-24T01:19:26.034Z,20.37
2017-10-24T01:21:53.485Z,22.80
2017-10-24T01:24:20.948Z,20.83
2017-10-24T01:26:48.401Z,24.37
2017-10-24T01:29:15.869Z,23.60
2017-10-24T01:31:43.322Z,22.00
2017-10-24T01:34:11.039Z,20.03
2017-10-24T01:36:38.488Z,21.07
2017-10-24T01:39:05.950Z,18.80
2017-10-24T01:41:33.440Z,18.40
2017-10-24T01:44:00.891Z,20.00
2017-10-24T01:46:28.334Z,17.80
2017-10-24T01:48:55.797Z,22.07
2017-10-24T01:51:23.244Z,23.37
2017-10-24T01:53:50.712Z,30.20
2017-10-24T01:56:18.156Z,25.33
2017-10-24T01:58:45.600Z,19.67
2017-10-24T02:01:13.070Z,18.13
2017-10-24T02:03:40.514Z,19.30
2017-10-24T02:06:07.985Z,17.10
2017-10-24T02:08:35.453Z,23.00
2017-10-24T02:11:02.900Z,22.70
2017-10-24T02:13:30.365Z,19.70
2017-10-24T02:15:57.831Z,21.23
2017-10-24T02:18:25.265Z,19.17
2017-10-24T02:20:52.732Z,21.10
2017-10-24T02:23:20.180Z,18.77
2017-10-24T02:25:47.650Z,20.83
2017-10-24T02:28:15.124Z,19.30
2017-10-24T02:30:42.556Z,20.00
2017-10-24T02:33:10.036Z,19.47
2017-10-24T02:35:37.488Z,27.00
2017-10-24T02:38:04.928Z,24.60
2017-10-24T02:40:32.403Z,22.33
2017-10-24T02:42:59.880Z,32.23
2017-10-24T02:45:27.609Z,27.07
2017-10-24T02:47:55.077Z,22.13
2017-10-24T02:50:22.559Z,24.80
2017-10-24T02:52:50.006Z,22.37
2017-10-24T02:55:17.449Z,28.50
2017-10-24T02:57:44.918Z,21.13
2017-10-24T03:00:12.361Z,26.03
2017-10-24T03:02:39.819Z,31.20
2017-10-24T03:05:07.290Z,21.10
2017-10-24T03:07:34.748Z,24.37
2017-10-24T03:10:02.188Z,24.17
2017-10-24T03:12:29.664Z,22.53
2017-10-24T03:14:57.117Z,20.87
2017-10-24T03:17:24.557Z,40.03
2017-10-24T03:19:52.032Z,25.27
2017-10-24T03:22:19.487Z,29.13
2017-10-24T03:24:46.930Z,30.97
2017-10-24T03:27:14.389Z,56.33
2017-10-24T03:29:41.866Z,22.20
2017-10-24T03:32:10.077Z,22.27
2017-10-24T03:34:37.577Z,20.60
2017-10-24T03:37:05.141Z,20.27
2017-10-24T03:39:32.587Z,30.03
2017-10-24T03:42:00.047Z,27.63
2017-10-24T03:44:27.783Z,26.73
2017-10-24T03:46:55.233Z,16.17
2017-10-24T03:49:22.713Z,20.70
2017-10-24T03:51:50.166Z,24.50
2017-10-24T03:54:18.377Z,23.33
2017-10-24T03:56:45.850Z,24.07
2017-10-24T03:59:13.303Z,23.73
2017-10-24T04:01:40.739Z,20.73
2017-10-24T04:04:08.210Z,20.07
2017-10-24T04:06:35.648Z,22.43
2017-10-24T04:09:03.113Z,20.03
2017-10-24T04:11:30.558Z,17.60
2017-10-24T04:13:58.027Z,20.80
2017-10-24T04:16:25.464Z,18.70
2017-10-24T04:18:53.063Z,19.70
2017-10-24T04:21:20.489Z,15.93
2017-10-24T04:23:48.336Z,19.17
2017-10-24T04:26:16.567Z,19.07
2017-10-24T04:28:44.917Z,16.83
2017-10-24T04:31:12.366Z,18.17
2017-10-24T04:33:39.824Z,20.80
2017-10-24T04:36:07.286Z,22.43
2017-10-24T04:38:34.720Z,22.37
2017-10-24T04:41:03.032Z,17.50
2017-10-24T04:43:30.468Z,22.07
2017-10-24T04:45:57.937Z,23.37
2017-10-24T04:48:25.385Z,19.87
2017-10-24T04:50:52.827Z,19.60
2017-10-24T04:53:21.074Z,23.97
2017-10-24T04:55:48.517Z,27.63
2017-10-24T04:58:15.973Z,23.03
2017-10-24T05:00:43.447Z,25.83
2017-10-24T05:03:10.889Z,21.67
2017-10-24T05:05:38.361Z,26.00
2017-10-24T05:08:05.800Z,33.83
2017-10-24T05:10:33.269Z,32.43
2017-10-24T05:13:00.738Z,31.67
2017-10-24T05:15:28.199Z,27.43
2017-10-24T05:17:55.665Z,29.03
2017-10-24T05:20:23.378Z,27.00
2017-10-24T05:22:50.811Z,33.00
2017-10-24T05:25:18.273Z,28.90
2017-10-24T05:27:45.725Z,30.20
2017-10-24T05:30:13.929Z,34.17
2017-10-24T05:32:41.391Z,31.63
2017-10-24T05:35:08.832Z,37.63
2017-10-24T05:37:36.305Z,31.27
2017-10-24T05:40:03.777Z,29.73
2017-10-24T05:42:31.244Z,33.73
2017-10-24T05:44:58.712Z,40.73
2017-10-24T05:47:26.436Z,30.90
2017-10-24T05:49:53.889Z,24.20
2017-10-24T05:52:21.321Z,30.70
2017-10-24T05:54:49.836Z,23.70
2017-10-24T05:57:17.392Z,33.17
2017-10-24T05:59:44.849Z,26.10
2017-10-24T06:02:12.305Z,25.90
2017-10-24T06:04:39.761Z,24.47
2017-10-24T06:07:07.217Z,23.67
2017-10-24T06:09:34.685Z,24.30
2017-10-24T06:12:02.158Z,33.50
2017-10-24T06:14:29.605Z,28.10
2017-10-24T06:16:57.092Z,29.10
2017-10-24T06:19:24.644Z,30.50
2017-10-24T06:21:52.097Z,29.40
2017-10-24T06:24:19.567Z,26.37
2017-10-24T06:26:47.009Z,34.80
2017-10-24T06:29:14.491Z,32.13
2017-10-24T06:31:41.948Z,35.60
2017-10-24T06:34:09.395Z,36.87
2017-10-24T06:36:36.862Z,34.60
2017-10-24T06:39:04.321Z,26.87
2017-10-24T06:41:31.831Z,31.20
2017-10-24T06:43:59.286Z,33.40
2017-10-24T06:46:27.587Z,31.70
2017-10-24T06:48:55.058Z,38.80
2017-10-24T06:51:22.501Z,29.70
2017-10-24T06:53:49.940Z,35.37
2017-10-24T06:56:17.498Z,41.27
2017-10-24T06:58:44.933Z,29.97
2017-10-24T07:01:13.150Z,23.93
2017-10-24T07:03:40.621Z,29.03
2017-10-24T07:06:08.070Z,29.57
2017-10-24T07:08:35.532Z,25.40
2017-10-24T07:11:02.975Z,24.77
2017-10-24T07:13:30.416Z,24.37
2017-10-24T07:15:57.884Z,20.53
2017-10-24T07:18:25.342Z,20.90
2017-10-24T07:20:52.797Z,23.77
2017-10-24T07:23:20.277Z,22.50
2017-10-24T07:25:47.721Z,23.90
2017-10-24T07:28:15.166Z,25.63
2017-10-24T07:30:42.645Z,21.70
2017-10-24T07:33:10.088Z,20.60
2017-10-24T07:35:37.538Z,20.27
2017-10-24T07:38:05.834Z,25.33
2017-10-24T07:40:33.274Z,20.60
2017-10-24T07:43:00.731Z,18.17
2017-10-24T07:45:28.209Z,19.00
2017-10-24T07:47:55.654Z,21.13
2017-10-24T07:50:23.139Z,25.80
2017-10-24T07:52:50.585Z,22.53
2017-10-24T07:55:18.052Z,18.77
2017-10-24T07:57:45.577Z,25.20
2017-10-24T08:00:13.030Z,23.87
2017-10-24T08:02:40.595Z,23.47
2017-10-24T08:05:08.067Z,24.90
2017-10-24T08:07:35.853Z,26.57
2017-10-24T08:10:03.292Z,32.07
2017-10-24T08:12:30.782Z,32.13
2017-10-24T08:14:58.224Z,23.17
2017-10-24T08:17:25.665Z,27.20
2017-10-24T08:19:53.217Z,30.27
2017-10-24T08:22:20.658Z,28.00
2017-10-24T08:24:48.101Z,33.60
2017-10-24T08:27:15.581Z,25.97
2017-10-24T08:29:43.041Z,26.90
2017-10-24T08:32:10.491Z,33.80
2017-10-24T08:34:37.970Z,25.47
2017-10-24T08:37:05.413Z,26.33
2017-10-24T08:39:33.173Z,33.20
2017-10-24T08:42:00.667Z,27.93
2017-10-24T08:44:28.893Z,35.50
2017-10-24T08:46:56.377Z,24.40
2017-10-24T08:49:23.884Z,27.03
2017-10-24T08:51:52.142Z,23.80
2017-10-24T08:54:19.617Z,22.17
2017-10-24T08:56:47.110Z,23.70
2017-10-24T08:59:14.592Z,25.77
2017-10-24T09:01:42.022Z,27.83
2017-10-24T09:04:09.470Z,24.83
2017-10-24T09:06:37.708Z,29.83
2017-10-24T09:22:24.711Z,38.87
2017-10-24T09:24:52.149Z,27.20
2017-10-24T09:27:19.607Z,24.90
2017-10-24T09:29:47.090Z,23.57
2017-10-24T09:32:14.576Z,24.03
2017-10-24T09:34:42.780Z,24.90
2017-10-24T09:37:10.258Z,35.07
2017-10-24T09:39:39.284Z,20.73
2017-10-24T09:42:07.533Z,30.40
2017-10-24T09:44:34.989Z,24.80
2017-10-24T09:47:02.437Z,22.63
2017-10-24T09:49:31.217Z,29.47
2017-10-24T09:51:58.648Z,21.87
2017-10-24T09:54:26.099Z,27.23
2017-10-24T09:56:53.576Z,23.40
2017-10-24T09:59:39.858Z,17.60
2017-10-24T10:02:07.345Z,20.43
2017-10-24T10:04:34.806Z,22.20
2017-10-24T10:07:02.641Z,22.00
2017-10-24T10:09:31.138Z,20.37
2017-10-24T10:11:58.592Z,23.23
2017-10-24T10:14:26.024Z,17.63
2017-10-24T10:16:53.520Z,19.57
2017-10-24T10:19:20.977Z,17.00
2017-10-24T10:21:49.385Z,22.27
2017-10-24T10:24:22.174Z,18.20
2017-10-24T10:26:49.640Z,25.10
2017-10-24T10:29:17.263Z,19.83
2017-10-24T10:31:44.775Z,21.10
2017-10-24T10:34:12.997Z,17.23
2017-10-24T10:36:40.445Z,18.83
2017-10-24T10:39:08.681Z,22.33
2017-10-24T10:41:37.032Z,17.07
2017-10-24T10:44:04.521Z,21.93
2017-10-24T10:46:32.829Z,21.10
2017-10-24T10:49:00.272Z,21.47
2017-10-24T10:51:27.753Z,16.57
2017-10-24T10:53:55.222Z,19.37
2017-10-24T10:56:22.677Z,21.90
2017-10-24T10:58:50.148Z,15.23
2017-10-24T11:01:17.597Z,17.70
2017-10-24T11:03:45.052Z,20.13
2017-10-24T11:06:12.537Z,16.30
2017-10-24T11:08:39.992Z,13.80
2017-10-24T11:11:07.445Z,13.70
2017-10-24T11:13:34.957Z,16.27
2017-10-24T11:16:02.412Z,18.87
2017-10-24T11:18:29.881Z,20.13
2017-10-24T11:20:57.398Z,13.60
2017-10-24T11:23:25.636Z,17.33
2017-10-24T11:25:53.118Z,18.87
2017-10-24T11:28:20.562Z,13.13
2017-10-24T11:30:48.026Z,17.27
2017-10-24T11:33:15.491Z,19.00
2017-10-24T11:35:42.933Z,20.40
2017-10-24T11:38:10.401Z,17.17
2017-10-24T11:40:37.885Z,15.83
2017-10-24T11:43:06.114Z,19.10
2017-10-24T11:45:33.564Z,14.07
2017-10-24T11:48:01.050Z,14.50
2017-10-24T11:50:28.498Z,13.93
2017-10-24T11:52:55.949Z,10.10
2017-10-24T11:55:24.198Z,11.80
2017-10-24T11:57:51.752Z,13.67
2017-10-24T12:00:19.190Z,12.70
2017-10-24T12:02:46.661Z,9.70
2017-10-24T12:05:14.105Z,9.70
2017-10-24T12:07:41.558Z,13.80
2017-10-24T12:10:09.789Z,7.87
2017-10-24T12:12:37.245Z,8.23
2017-10-24T12:15:04.686Z,9.17
2017-10-24T12:17:32.160Z,8.63
2017-10-24T12:19:59.600Z,8.27
2017-10-24T12:22:27.041Z,7.80
2017-10-24T12:24:54.526Z,7.50
2017-10-24T12:27:21.964Z,6.50
2017-10-24T12:29:49.409Z,7.73
2017-10-24T12:32:16.929Z,7.63
2017-10-24T12:34:44.364Z,8.37
2017-10-24T12:37:11.894Z,10.03
2017-10-24T12:39:39.358Z,7.27
2017-10-24T12:42:09.161Z,5.77
2017-10-24T12:44:37.436Z,7.10
2017-10-24T12:47:10.565Z,9.20
2017-10-24T12:49:40.561Z,8.93
2017-10-24T12:52:08.000Z,8.90
2017-10-24T12:54:35.477Z,9.17
2017-10-24T12:57:02.927Z,7.30
2017-10-24T12:59:30.374Z,6.80
2017-10-24T13:01:57.853Z,5.67
2017-10-24T13:04:25.306Z,5.87
2017-10-24T13:06:52.754Z,7.33
2017-10-24T13:09:20.226Z,7.20
2017-10-24T13:11:47.670Z,6.67
2017-10-24T13:14:15.123Z,8.87
2017-10-24T13:16:42.600Z,9.30
2017-10-24T13:19:10.817Z,7.70
2017-10-24T13:21:39.031Z,8.40
2017-10-24T13:24:06.505Z,9.80
2017-10-24T13:26:34.838Z,10.47
2017-10-24T13:29:03.040Z,8.13
2017-10-24T13:31:30.500Z,8.40
2017-10-24T13:33:57.996Z,38.53
2017-10-24T13:36:26.206Z,14.53
2017-10-24T13:38:54.422Z,11.97
